Time;durP1;ratioP1;P1;durP2;ratioP2;P2;SDS_P1;SDS_P2;PMS_P1;PMS_P2;Temp;Humidity;BMP_temperature;BMP_pressure;BME280_temperature;BME280_humidity;BME280_pressure;Samples;Min_cycle;Max_cycle;Signal;HPM_P1;HPM_P2
2022/10/11 00:01:16;;;;;;;;;21.60;19.60;;;;;18.80;49.78;99810.69;5028735;28;8869;-75
2022/10/11 00:03:44;;;;;;;;;23.00;20.80;;;;;18.87;49.30;99806.97;5013243;28;8874;-75
2022/10/11 00:06:12;;;;;;;;;26.20;24.80;;;;;18.86;49.26;99805.22;5013152;28;8981;-75
2022/10/11 00:08:41;;;;;;;;;23.60;23.00;;;;;18.84;49.04;99804.41;5012071;28;8878;-74
2022/10/11 00:11:11;;;;;;;;;19.20;18.40;;;;;18.88;48.99;99796.38;5045470;28;8896;-76
2022/10/11 00:13:40;;;;;;;;;25.40;24.20;;;;;18.94;48.33;99805.00;5013545;28;8881;-75
2022/10/11 00:16:10;;;;;;;;;29.20;25.00;;;;;18.92;48.76;99789.19;4994226;28;8870;-78
2022/10/11 00:18:39;;;;;;;;;24.00;23.40;;;;;18.93;48.66;99792.72;5012696;28;8882;-75
2022/10/11 00:21:11;;;;;;;;;23.40;23.40;;;;;18.84;48.68;99800.00;5011512;28;10130;-75
2022/10/11 00:23:41;;;;;;;;;28.20;25.80;;;;;18.77;48.66;99790.50;5011576;28;8953;-76
2022/10/11 00:26:22;;;;;;;;;22.20;20.20;;;;;18.62;49.44;99791.84;5152364;27;13401;-76
2022/10/11 00:29:00;;;;;;;;;21.50;19.50;;;;;18.68;49.20;99786.34;5142281;27;1311874;-77
2022/10/11 00:31:40;;;;;;;;;23.00;23.00;;;;;18.71;49.28;99782.75;5158585;27;13461;-75
2022/10/11 00:34:21;;;;;;;;;22.80;19.80;;;;;18.81;48.44;99788.66;5083766;27;13604;-77
2022/10/11 00:37:00;;;;;;;;;22.80;21.80;;;;;18.82;48.76;99782.47;5142189;27;1313157;-75
2022/10/11 00:39:41;;;;;;;;;19.60;17.80;;;;;18.83;48.76;99779.78;5104996;27;13506;-75
2022/10/11 00:42:20;;;;;;;;;22.00;22.00;;;;;18.96;48.13;99772.34;5169631;27;9495;-77
2022/10/11 00:45:32;;;;;;;;;19.60;16.60;;;;;18.85;48.33;99774.44;5104200;27;13467;-76
2022/10/11 00:48:19;;;;;;;;;18.80;18.60;;;;;18.83;48.44;99774.50;5124787;27;13568;-76
2022/10/11 00:51:02;;;;;;;;;21.40;20.20;;;;;18.90;48.31;99775.16;5124427;27;13574;-76
2022/10/11 00:53:42;;;;;;;;;20.00;17.50;;;;;18.95;48.16;99780.31;5141692;27;1328017;-74
2022/10/11 00:56:26;;;;;;;;;20.80;20.00;;;;;18.97;48.33;99771.41;5145910;27;13354;-75
2022/10/11 00:59:15;;;;;;;;;23.40;21.40;;;;;18.99;48.23;99772.22;5104205;27;14368;-76
2022/10/11 01:01:56;;;;;;;;;23.40;23.20;;;;;19.01;48.17;99773.03;5124430;27;14179;-77
2022/10/11 01:04:37;;;;;;;;;15.60;15.00;;;;;18.97;48.04;99766.13;5125144;27;14368;-76
2022/10/11 01:07:20;;;;;;;;;20.80;20.40;;;;;19.07;47.86;99767.59;5169338;27;9510;-76
2022/10/11 01:10:00;;;;;;;;;18.80;17.60;;;;;18.87;48.36;99768.19;5166156;27;13462;-75
2022/10/11 01:12:48;;;;;;;;;20.00;19.20;;;;;18.96;48.23;99768.81;5119831;27;13581;-77
2022/10/11 01:15:34;;;;;;;;;19.25;19.25;;;;;18.97;48.00;99763.47;5142627;27;1319582;-74
2022/10/11 01:18:24;;;;;;;;;21.20;20.80;;;;;18.92;47.97;99764.53;5167157;27;13387;-75
2022/10/11 01:21:12;;;;;;;;;21.80;20.60;;;;;18.96;47.91;99759.13;5131166;27;14233;-76
2022/10/11 01:24:28;;;;;;;;;22.00;20.25;;;;;19.07;47.59;99754.38;5148352;27;1287447;-75
2022/10/11 01:27:29;;;;;;;;;20.20;18.40;;;;;18.99;47.69;99759.00;5091285;27;13647;-75
2022/10/11 01:30:25;;;;;;;;;21.80;19.60;;;;;18.92;47.74;99753.97;5104290;27;13366;-75
2022/10/11 01:33:18;;;;;;;;;19.00;17.60;;;;;18.94;47.74;99749.50;5104441;27;13786;-76
2022/10/11 01:36:11;;;;;;;;;21.80;19.60;;;;;18.91;47.81;99749.63;5104610;27;13440;-77
2022/10/11 01:38:57;;;;;;;;;19.75;19.00;;;;;18.92;47.85;99749.53;5129923;27;1284254;-76
2022/10/11 01:41:46;;;;;;;;;18.00;16.80;;;;;18.89;47.79;99744.38;5138131;27;13458;-75
2022/10/11 01:44:27;;;;;;;;;20.00;19.00;;;;;18.87;47.65;99751.47;5149272;27;13424;-75
2022/10/11 01:47:07;;;;;;;;;18.50;17.00;;;;;18.85;47.49;99745.38;5141749;27;1322931;-75
2022/10/11 01:49:53;;;;;;;;;20.80;19.80;;;;;18.89;47.52;99747.00;5124683;27;13460;-75
2022/10/11 01:52:39;;;;;;;;;19.00;19.00;;;;;18.84;47.65;99744.50;5136349;27;13463;-75
2022/10/11 01:55:30;;;;;;;;;20.40;18.20;;;;;18.86;47.63;99744.47;5125132;27;13523;-76
2022/10/11 01:58:19;;;;;;;;;15.80;15.20;;;;;18.89;47.63;99747.88;5125463;27;13571;-74
2022/10/11 02:01:08;;;;;;;;;20.50;18.75;;;;;18.88;47.38;99740.88;5147409;27;1280958;-77
2022/10/11 02:03:59;;;;;;;;;16.00;15.60;;;;;18.91;47.36;99741.69;5124839;27;13532;-76
2022/10/11 02:06:48;;;;;;;;;19.00;19.00;;;;;18.96;47.18;99753.84;5142678;27;1331502;-75
2022/10/11 02:09:35;;;;;;;;;17.60;17.60;;;;;18.91;47.32;99750.47;5117873;27;13395;-78
2022/10/11 02:12:23;;;;;;;;;21.20;20.20;;;;;18.86;47.13;99749.75;5122901;27;13522;-77
2022/10/11 02:15:08;;;;;;;;;20.00;18.60;;;;;18.83;47.33;99756.00;5142384;27;13456;-77
2022/10/11 02:17:53;;;;;;;;;20.60;19.40;;;;;18.79;47.87;99756.09;5137939;27;13554;-78
2022/10/11 02:20:39;;;;;;;;;18.60;18.40;;;;;18.78;47.38;99738.53;5170856;27;13388;-75
2022/10/11 02:23:23;;;;;;;;;20.20;19.40;;;;;18.72;47.73;99751.94;5170374;27;13395;-77
2022/10/11 02:26:08;;;;;;;;;17.00;17.00;;;;;18.62;47.91;99741.66;5172775;27;13601;-77
2022/10/11 02:28:52;;;;;;;;;17.40;17.40;;;;;18.61;47.92;99749.59;5125407;27;13449;-74
2022/10/11 02:31:34;;;;;;;;;20.75;19.75;;;;;18.63;47.94;99743.34;5130507;27;1642523;-75
2022/10/11 02:34:18;;;;;;;;;17.80;16.00;;;;;18.56;48.15;99749.72;5124671;27;13359;-77
2022/10/11 02:37:04;;;;;;;;;18.20;16.80;;;;;18.59;47.83;99743.50;5166123;27;13467;-76
2022/10/11 02:39:48;;;;;;;;;19.00;18.60;;;;;18.63;47.98;99742.50;5056200;28;13684;-77
2022/10/11 02:42:35;;;;;;;;;24.80;20.60;;;;;18.63;47.80;99739.84;5124704;27;13527;-76
2022/10/11 02:45:19;;;;;;;;;19.40;17.80;;;;;18.63;47.65;99747.78;5158385;27;13505;-76
2022/10/11 02:48:00;;;;;;;;;21.40;19.60;;;;;18.65;47.65;99746.81;5145273;27;13462;-76
2022/10/11 02:50:42;;;;;;;;;16.20;16.20;;;;;18.68;47.77;99748.50;5125011;27;13456;-75
2022/10/11 02:53:22;;;;;;;;;12.00;11.00;;;;;18.77;47.41;99750.00;5104970;27;13539;-77
2022/10/11 02:56:04;;;;;;;;;18.60;18.60;;;;;18.76;47.32;99743.84;5132306;27;13394;-75
2022/10/11 02:58:46;;;;;;;;;23.40;19.60;;;;;18.72;47.24;99744.88;5124827;27;13491;-76
2022/10/11 03:01:26;;;;;;;;;21.50;19.00;;;;;18.60;47.70;99750.50;5101843;27;1294233;-75
2022/10/11 03:04:06;;;;;;;;;24.80;23.60;;;;;18.71;47.74;99748.41;5170444;27;13528;-76
2022/10/11 03:06:46;;;;;;;;;61.75;49.25;;;;;18.80;48.02;99740.22;5124736;27;13451;-76
2022/10/11 03:09:27;;;;;;;;;27.80;26.40;;;;;18.86;47.51;99744.47;5125107;27;13456;-74
2022/10/11 03:12:07;;;;;;;;;23.20;23.20;;;;;18.91;47.13;99747.81;5099444;27;13554;-75
2022/10/11 03:14:48;;;;;;;;;18.20;16.20;;;;;18.88;47.29;99748.81;5104494;27;13447;-76
2022/10/11 03:17:28;;;;;;;;;20.60;20.40;;;;;18.94;47.35;99747.75;5124925;27;13583;-75
2022/10/11 03:20:17;;;;;;;;;35.50;33.50;;;;;18.98;47.36;99752.00;5124979;27;13404;-77
2022/10/11 03:22:57;;;;;;;;;23.40;22.20;;;;;18.85;47.58;99748.03;5084853;27;13578;-78
2022/10/11 03:25:37;;;;;;;;;25.50;25.50;;;;;19.08;46.96;99757.88;5148424;27;9490;-77
2022/10/11 03:28:17;;;;;;;;;29.00;26.40;;;;;18.88;47.77;99761.13;5104529;27;13438;-76
2022/10/11 03:30:57;;;;;;;;;18.20;18.20;;;;;18.84;47.63;99748.94;5124729;27;13437;-77
2022/10/11 03:33:37;;;;;;;;;18.50;16.50;;;;;18.62;47.92;99757.50;5141562;27;1337590;-77
2022/10/11 03:36:17;;;;;;;;;17.25;17.25;;;;;18.69;48.06;99760.78;5142246;27;1318763;-77
2022/10/11 03:38:59;;;;;;;;;21.80;19.80;;;;;18.82;47.76;99745.47;5146142;27;14293;-77
2022/10/11 03:41:38;;;;;;;;;41.00;36.00;;;;;18.95;47.88;99745.97;5140067;27;1387639;-77
2022/10/11 03:44:19;;;;;;;;;26.00;25.75;;;;;19.06;47.18;99743.84;5104551;27;13505;-76
2022/10/11 03:46:57;;;;;;;;;29.50;27.00;;;;;19.12;46.75;99751.56;5141727;27;1343507;-75
2022/10/11 03:49:38;;;;;;;;;22.40;19.80;;;;;19.12;46.66;99748.06;5127203;27;14701;-76
2022/10/11 03:52:23;;;;;;;;;21.00;19.20;;;;;19.13;46.55;99747.13;5084276;27;13438;-77
2022/10/11 03:55:03;;;;;;;;;22.40;17.80;;;;;19.15;46.52;99745.28;5104907;27;14181;-77
2022/10/11 03:57:43;;;;;;;;;19.60;18.00;;;;;19.21;46.40;99745.97;5108350;27;13545;-76
2022/10/11 04:00:23;;;;;;;;;41.75;35.25;;;;;19.52;45.62;99742.28;5148904;27;8842;-76
2022/10/11 04:03:03;;;;;;;;;25.60;23.80;;;;;19.27;46.25;99743.13;5125813;27;13652;-75
2022/10/11 04:05:44;;;;;;;;;26.00;23.20;;;;;19.31;46.11;99741.25;5105195;27;13574;-78
2022/10/11 04:08:42;;;;;;;;;19.20;15.20;;;;;19.34;46.13;99734.97;5085312;27;13503;-77
2022/10/11 04:11:21;;;;;;;;;34.50;32.50;;;;;19.33;46.10;99734.13;5121739;27;1338685;-76
2022/10/11 04:14:01;;;;;;;;;23.50;22.75;;;;;19.35;45.89;99731.44;5123610;27;1284432;-77
2022/10/11 04:16:42;;;;;;;;;21.00;18.60;;;;;19.33;45.79;99733.28;5120701;27;13534;-76
2022/10/11 04:19:22;;;;;;;;;2.40;2.00;;;;;19.33;46.03;99734.13;5087358;27;13566;-78
2022/10/11 04:22:02;;;;;;;;;20.00;18.80;;;;;19.33;46.05;99734.13;5125495;27;13532;-78
2022/10/11 04:24:42;;;;;;;;;16.60;15.20;;;;;19.35;45.84;99728.78;5087075;27;13475;-77
2022/10/11 04:27:21;;;;;;;;;30.75;28.50;;;;;19.37;45.77;99735.75;5125550;27;13517;-76
2022/10/11 04:30:01;;;;;;;;;22.20;20.60;;;;;19.37;45.57;99733.09;5107706;27;13457;-77
2022/10/11 04:32:41;;;;;;;;;15.20;15.20;;;;;19.36;45.60;99741.09;5105266;27;13580;-77
2022/10/11 04:35:21;;;;;;;;;20.00;18.40;;;;;19.36;45.61;99741.09;5125591;27;13471;-78
2022/10/11 04:37:59;;;;;;;;;20.00;18.80;;;;;19.39;45.38;99743.63;5121957;27;1329541;-75
2022/10/11 04:40:40;;;;;;;;;20.20;19.00;;;;;19.36;45.62;99746.41;5093869;27;13507;-76
2022/10/11 04:43:19;;;;;;;;;19.00;18.75;;;;;19.34;45.50;99742.91;5129470;27;1288717;-77
2022/10/11 04:45:57;;;;;;;;;23.80;22.60;;;;;19.34;45.52;99738.50;5126719;27;1325708;-76
2022/10/11 04:48:37;;;;;;;;;18.60;17.80;;;;;19.39;45.50;99752.41;5181400;27;13456;-77
2022/10/11 04:51:16;;;;;;;;;26.20;23.60;;;;;19.40;45.38;99750.66;5122245;27;13490;-76
2022/10/11 04:53:58;;;;;;;;;24.00;23.40;;;;;19.39;45.56;99752.41;5108611;27;13500;-77
2022/10/11 04:56:37;;;;;;;;;18.00;18.00;;;;;19.42;45.52;99743.53;5121855;27;13483;-76
2022/10/11 04:59:16;;;;;;;;;16.20;16.20;;;;;19.50;45.71;99745.91;5118986;27;1434416;-77
2022/10/11 05:01:56;;;;;;;;;19.40;17.20;;;;;19.56;45.65;99745.69;5104582;27;13509;-75
2022/10/11 05:04:36;;;;;;;;;18.40;17.80;;;;;19.64;45.22;99748.94;5104738;27;13516;-79
2022/10/11 05:07:15;;;;;;;;;20.00;18.60;;;;;19.67;45.20;99746.19;5162769;27;13334;-75
2022/10/11 05:09:55;;;;;;;;;22.40;19.20;;;;;19.73;45.23;99751.31;5110155;27;13549;-78
2022/10/11 05:12:35;;;;;;;;;22.40;22.20;;;;;19.78;45.15;99751.16;5112648;27;13620;-77
2022/10/11 05:15:15;;;;;;;;;18.40;18.40;;;;;19.79;44.97;99758.16;5103438;27;14599;-76
2022/10/11 05:17:54;;;;;;;;;20.40;19.20;;;;;19.80;44.71;99752.81;5083285;27;13433;-77
2022/10/11 05:20:34;;;;;;;;;20.40;17.80;;;;;19.76;44.63;99751.22;5104248;27;13499;-76
2022/10/11 05:23:15;;;;;;;;;18.00;16.80;;;;;19.78;44.29;99751.16;5103140;27;13445;-77
2022/10/11 05:25:55;;;;;;;;;19.00;18.00;;;;;19.78;44.29;99764.38;5105233;27;14936;-77
2022/10/11 05:28:34;;;;;;;;;17.80;17.20;;;;;19.76;44.37;99764.44;5122638;27;1318013;-78
2022/10/11 05:31:16;;;;;;;;;15.00;14.20;;;;;19.76;44.42;99753.84;5118675;27;14284;-76
2022/10/11 05:33:56;;;;;;;;;16.00;15.20;;;;;19.73;44.48;99756.59;5104413;27;13498;-77
2022/10/11 05:36:37;;;;;;;;;15.20;15.00;;;;;19.74;44.52;99763.63;5124308;27;13497;-77
2022/10/11 05:39:17;;;;;;;;;19.50;15.75;;;;;19.74;44.61;99760.97;5142301;27;1282962;-77
2022/10/11 05:41:59;;;;;;;;;19.20;17.40;;;;;19.75;44.30;99762.69;5105334;27;13498;-76
2022/10/11 05:44:41;;;;;;;;;18.00;16.50;;;;;19.73;44.29;99771.63;5142644;27;1320303;-75
2022/10/11 05:47:20;;;;;;;;;16.40;16.20;;;;;19.71;44.51;99781.34;5123823;27;13426;-75
2022/10/11 05:50:00;;;;;;;;;17.60;17.60;;;;;19.74;44.48;99776.00;5122102;27;13461;-75
2022/10/11 05:52:40;;;;;;;;;17.60;17.60;;;;;19.80;44.30;99778.44;5113902;27;13582;-76
2022/10/11 05:55:21;;;;;;;;;21.80;21.40;;;;;19.85;44.34;99784.44;5104918;27;13575;-76
2022/10/11 05:58:02;;;;;;;;;23.20;21.20;;;;;19.71;44.42;99784.00;5118671;27;13452;-74
2022/10/11 06:00:42;;;;;;;;;26.50;25.00;;;;;19.74;44.56;99789.25;5109556;27;13579;-76
2022/10/11 06:03:23;;;;;;;;;20.40;19.40;;;;;19.86;44.79;99796.75;5144987;27;13433;-75
2022/10/11 06:06:04;;;;;;;;;21.60;19.40;;;;;19.96;44.57;99802.56;5110434;27;13555;-76
2022/10/11 06:08:44;;;;;;;;;18.80;18.20;;;;;20.13;44.60;99807.25;5142830;27;1288705;-75
2022/10/11 06:11:27;;;;;;;;;26.50;24.50;;;;;20.25;44.21;99798.91;5119986;27;13478;-75
2022/10/11 06:14:07;;;;;;;;;31.75;24.25;;;;;20.35;43.97;99807.38;4664266;27;15063296;-76
2022/10/11 06:17:15;;;;;;;;;20.00;18.80;;;;;20.44;43.45;99812.34;5121786;27;14405;-75
2022/10/11 06:19:53;;;;;;;;;18.50;17.75;;;;;20.48;43.72;99806.00;4217426;27;23907150;-76
2022/10/11 06:22:47;;;;;;;;;18.40;17.60;;;;;20.51;43.54;99812.94;5140867;27;13403;-77
2022/10/11 06:25:41;;;;;;;;;22.60;22.00;;;;;20.49;43.59;99812.16;5124290;27;13489;-75
2022/10/11 06:28:36;;;;;;;;;17.00;14.50;;;;;20.42;43.88;99817.69;5084968;27;14340;-75
2022/10/11 06:31:31;;;;;;;;;21.20;18.60;;;;;20.35;44.01;99818.81;5123748;27;13514;-74
2022/10/11 06:34:25;;;;;;;;;27.80;25.80;;;;;20.44;44.43;99817.63;5123931;27;13569;-75
2022/10/11 06:37:25;;;;;;;;;22.00;22.00;;;;;20.42;44.04;99824.78;5125559;27;13418;-75
2022/10/11 06:40:24;;;;;;;;;22.80;20.40;;;;;20.54;44.03;99834.03;5163392;27;14189;-78
2022/10/11 06:43:04;;;;;;;;;24.75;21.00;;;;;20.64;43.75;99827.50;4563374;27;17942484;-79
2022/10/11 06:45:42;;;;;;;;;22.50;21.25;;;;;20.61;43.05;99836.44;4650747;27;15098015;-78
2022/10/11 06:48:50;;;;;;;;;24.20;24.00;;;;;21.01;42.42;99834.06;5087911;27;13420;-73
2022/10/11 06:51:47;;;;;;;;;22.20;21.00;;;;;20.58;43.36;99836.50;5123862;27;13733;-73
2022/10/11 06:54:47;;;;;;;;;19.80;19.80;;;;;20.56;43.78;99842.81;5141436;27;13579;-75
2022/10/11 06:57:27;;;;;;;;;32.00;30.33;;;;;20.62;44.43;99840.84;4537615;27;18637190;-76
2022/10/11 07:00:28;;;;;;;;;24.00;23.60;;;;;20.66;43.83;99844.22;5121175;27;13365;-74
2022/10/11 07:03:21;;;;;;;;;25.25;23.50;;;;;20.64;44.10;99841.63;5124054;27;13482;-75
2022/10/11 07:06:18;;;;;;;;;27.00;25.75;;;;;20.70;44.08;99844.97;5103944;27;14295;-75
2022/10/11 07:09:23;;;;;;;;;36.25;32.00;;;;;20.75;43.89;99846.50;5042804;27;13436;-72
2022/10/11 07:12:19;;;;;;;;;30.25;29.75;;;;;20.74;44.20;99854.56;5123997;27;13602;-73
2022/10/11 07:15:17;;;;;;;;;27.75;26.50;;;;;20.72;44.35;99859.91;5154165;27;13424;-74
2022/10/11 07:18:14;;;;;;;;;28.00;27.25;;;;;20.53;44.76;99861.44;5165102;27;13377;-75
2022/10/11 07:20:53;;;;;;;;;25.00;25.00;;;;;20.54;44.91;99866.69;4562323;27;17920958;-74
2022/10/11 07:23:56;;;;;;;;;28.80;23.40;;;;;20.70;45.00;99872.34;5143495;27;13424;-72
2022/10/11 07:26:36;;;;;;;;;29.67;28.00;;;;;20.91;44.75;99865.38;4664596;27;15080682;-75
2022/10/11 07:29:41;;;;;;;;;23.80;23.40;;;;;20.98;44.11;99872.19;5124734;27;13424;-66
2022/10/11 07:32:38;;;;;;;;;21.00;20.50;;;;;21.08;44.46;99879.75;5166752;27;13365;-66
2022/10/11 07:35:40;;;;;;;;;33.00;31.00;;;;;21.09;44.65;99877.06;5124106;27;13496;-68
2022/10/11 07:38:46;;;;;;;;;33.75;30.25;;;;;21.14;44.90;99867.13;5166002;27;13427;-70
2022/10/11 07:41:39;;;;;;;;;29.25;28.75;;;;;21.14;44.61;99869.78;5124191;27;13482;-67
2022/10/11 07:44:53;;;;;;;;;31.00;27.00;;;;;21.28;44.12;99879.00;5141181;27;13428;-68
2022/10/11 07:47:51;;;;;;;;;44.50;36.00;;;;;21.26;44.77;99880.84;5164183;27;13545;-70
2022/10/11 07:50:50;;;;;;;;;35.25;30.00;;;;;21.31;44.49;99876.22;5164294;27;13364;-74
2022/10/11 07:53:45;;;;;;;;;39.25;34.00;;;;;21.39;44.89;99879.44;5117515;27;14294;-75
2022/10/11 07:56:39;;;;;;;;;33.50;30.25;;;;;21.34;44.76;99890.25;5142218;27;13432;-74
2022/10/11 07:59:33;;;;;;;;;32.25;30.25;;;;;21.47;44.79;99884.47;5125869;27;13563;-76
2022/10/11 08:02:27;;;;;;;;;36.00;32.50;;;;;21.64;44.46;99884.63;5123982;27;13541;-76
2022/10/11 08:05:07;;;;;;;;;29.00;28.33;;;;;21.75;44.44;99878.91;4013868;27;33178648;-75
2022/10/11 08:08:05;;;;;;;;;29.75;27.25;;;;;21.84;44.33;99888.28;5124357;27;13464;-77
2022/10/11 08:11:38;;;;;;;;;25.20;24.80;;;;;21.94;44.62;99889.63;5124233;27;13477;-75
2022/10/11 08:14:35;;;;;;;;;28.75;26.75;;;;;21.90;44.20;99882.72;5141584;27;14322;-73
2022/10/11 08:17:33;;;;;;;;;26.25;25.25;;;;;21.88;44.23;99889.88;5164739;27;14833;-77
2022/10/11 08:20:31;;;;;;;;;27.50;26.75;;;;;21.96;44.45;99887.75;5166836;27;13392;-73
2022/10/11 08:23:45;;;;;;;;;25.20;25.20;;;;;22.04;44.17;99893.63;5142132;27;13553;-74
2022/10/11 08:26:40;;;;;;;;;27.40;26.40;;;;;22.45;43.24;99891.00;5168920;27;13421;-73
2022/10/11 08:29:19;;;;;;;;;29.25;27.25;;;;;22.16;43.70;99890.44;3999024;27;33164723;-73
2022/10/11 08:32:13;;;;;;;;;31.50;30.50;;;;;22.15;43.81;99893.16;5120830;27;13612;-76
2022/10/11 08:35:11;;;;;;;;;33.00;30.75;;;;;22.22;43.95;99896.44;5165608;27;14158;-75
2022/10/11 08:38:08;;;;;;;;;29.50;28.00;;;;;22.28;43.51;99891.72;5124857;27;13681;-75
2022/10/11 08:40:49;;;;;;;;;39.00;33.33;;;;;22.22;43.50;99896.44;4665086;27;15064348;-75
2022/10/11 08:43:51;;;;;;;;;31.50;30.00;;;;;22.20;43.38;99893.81;5144801;27;13526;-75
2022/10/11 08:46:23;;;;;;;;;33.50;30.50;;;;;22.41;42.74;99897.38;5126605;27;8821;-76
2022/10/11 08:48:52;;;;;;;;;26.50;25.75;;;;;22.55;42.67;99899.41;5124858;27;9648;-78
2022/10/11 08:51:26;;;;;;;;;34.00;31.75;;;;;22.57;42.73;99890.47;5124891;27;8837;-73
2022/10/11 08:54:01;;;;;;;;;25.40;25.40;;;;;22.66;42.52;99896.28;5126454;27;8873;-76
2022/10/11 08:56:38;;;;;;;;;34.00;30.00;;;;;22.29;43.45;99895.28;5125746;27;8987;-74
2022/10/11 08:59:31;;;;;;;;;31.00;28.50;;;;;22.56;43.21;99901.16;5127748;27;8869;-76
2022/10/11 09:02:12;;;;;;;;;31.00;30.60;;;;;22.74;42.86;99903.00;5126911;27;9795;-74
2022/10/11 09:04:40;;;;;;;;;28.75;28.75;;;;;22.76;42.61;99906.44;5142522;27;9043;-77
2022/10/11 09:07:19;;;;;;;;;28.80;27.60;;;;;22.88;42.27;99905.03;5125881;27;8863;-74
2022/10/11 09:10:01;;;;;;;;;25.00;24.20;;;;;22.93;42.34;99905.69;5125207;27;8876;-74
2022/10/11 09:12:42;;;;;;;;;26.60;24.20;;;;;23.05;42.20;99911.41;5048460;28;8846;-75
2022/10/11 09:15:29;;;;;;;;;20.20;19.00;;;;;23.20;42.24;99897.38;5082837;28;8866;-75
2022/10/11 09:18:18;;;;;;;;;29.00;27.00;;;;;23.26;42.31;99901.56;5065414;28;8996;-80
2022/10/11 09:20:56;;;;;;;;;35.50;30.25;;;;;23.18;42.20;99893.09;5050725;28;8850;-75
2022/10/11 09:23:40;;;;;;;;;39.75;35.25;;;;;22.89;42.67;99900.56;5082215;28;8850;-74
2022/10/11 09:26:14;;;;;;;;;34.50;31.00;;;;;22.74;43.02;99907.44;5081082;28;8866;-74
2022/10/11 09:28:55;;;;;;;;;31.50;30.00;;;;;22.64;43.25;99906.97;5055797;28;8862;-72
2022/10/11 09:31:31;;;;;;;;;37.50;32.50;;;;;22.66;43.52;99906.91;5074622;27;8932;-79
2022/10/11 09:34:10;;;;;;;;;33.25;31.25;;;;;22.76;43.15;99905.59;5130356;27;8853;-76
2022/10/11 09:36:44;;;;;;;;;41.00;34.50;;;;;22.44;43.82;99902.56;5128743;27;8885;-76
2022/10/11 09:39:27;;;;;;;;;42.75;36.75;;;;;22.53;43.88;99903.94;5123881;28;9010;-76
2022/10/11 09:42:01;;;;;;;;;37.75;32.75;;;;;22.66;43.67;99898.94;5125851;27;8876;-75
2022/10/11 09:44:35;;;;;;;;;36.25;33.25;;;;;22.87;43.76;99905.97;5126172;27;8856;-74
2022/10/11 09:47:06;;;;;;;;;42.25;36.25;;;;;22.83;43.26;99901.69;5127057;27;8864;-74
2022/10/11 09:49:40;;;;;;;;;36.00;33.00;;;;;22.66;43.71;99905.13;5107114;27;8957;-75
2022/10/11 09:52:16;;;;;;;;;36.75;33.50;;;;;22.37;44.63;99909.94;5126064;27;8879;-76
2022/10/11 09:54:48;;;;;;;;;34.00;33.00;;;;;22.20;45.03;99918.59;5109564;28;8840;-76
2022/10/11 09:57:22;;;;;;;;;40.50;35.50;;;;;22.00;45.68;99916.78;5059641;28;9023;-76
2022/10/11 10:00:01;;;;;;;;;37.00;32.00;;;;;22.20;45.48;99917.72;5109418;28;8986;-74
2022/10/11 10:02:42;;;;;;;;;32.50;30.50;;;;;22.39;45.22;99912.53;5060655;28;8890;-77
2022/10/11 10:05:20;;;;;;;;;37.50;33.75;;;;;22.66;44.90;99913.09;5108956;28;8836;-76
2022/10/11 10:08:01;;;;;;;;;40.33;35.33;;;;;22.89;44.29;99906.75;5109670;28;8893;-74
2022/10/11 10:10:38;;;;;;;;;39.25;35.00;;;;;22.43;45.40;99918.56;5072671;28;8842;-76
2022/10/11 10:13:20;;;;;;;;;35.75;32.25;;;;;22.69;44.68;99920.09;5103408;28;8966;-75
2022/10/11 10:15:52;;;;;;;;;34.00;32.00;;;;;22.64;44.87;99925.59;5109201;28;8945;-77
2022/10/11 10:18:26;;;;;;;;;47.00;38.50;;;;;22.43;45.51;99924.75;5088031;28;8852;-79
2022/10/11 10:20:58;;;;;;;;;36.75;33.75;;;;;22.45;45.37;99914.91;5071844;28;8849;-76
2022/10/11 10:23:29;;;;;;;;;44.00;36.75;;;;;22.13;46.38;99918.91;5053067;28;8976;-77
2022/10/11 10:26:11;;;;;;;;;43.25;38.00;;;;;22.44;45.96;99909.66;4984117;28;8883;-75
2022/10/11 10:28:55;;;;;;;;;51.50;42.75;;;;;22.28;46.24;99922.75;4997800;28;9094;-73
2022/10/11 10:31:29;;;;;;;;;40.50;37.00;;;;;21.67;47.96;99921.69;5031819;28;8887;-75
2022/10/11 10:33:59;;;;;;;;;49.25;40.50;;;;;21.09;49.86;99919.47;5046592;28;8957;-75
2022/10/11 10:36:33;;;;;;;;;43.50;35.75;;;;;21.02;49.89;99915.34;5046697;28;9065;-74
2022/10/11 10:39:10;;;;;;;;;39.50;34.50;;;;;21.39;48.81;99917.44;4965339;28;8853;-75
2022/10/11 10:41:38;;;;;;;;;37.25;33.25;;;;;21.54;48.85;99913.34;5032606;28;8868;-70
2022/10/11 10:44:10;;;;;;;;;45.25;38.25;;;;;21.83;48.17;99907.78;5046853;28;8860;-74
2022/10/11 10:46:53;;;;;;;;;44.75;37.00;;;;;22.05;47.89;99913.94;5046754;28;9593;-77
2022/10/11 10:49:26;;;;;;;;;44.50;36.75;;;;;22.26;47.48;99908.66;5009892;28;8886;-75
2022/10/11 10:52:41;;;;;;;;;43.50;37.25;;;;;22.02;47.97;99918.50;4989445;28;8937;-74
2022/10/11 10:55:21;;;;;;;;;45.00;38.25;;;;;21.48;49.66;99908.28;4989859;28;8870;-74
2022/10/11 10:58:04;;;;;;;;;42.25;34.75;;;;;21.52;49.44;99909.88;5020094;28;8845;-74
2022/10/11 11:00:40;;;;;;;;;47.25;40.25;;;;;21.78;49.36;99900.88;5026560;28;9579;-75
2022/10/11 11:03:20;;;;;;;;;50.50;41.00;;;;;21.90;49.33;99902.16;5026816;28;8869;-74
2022/10/11 11:05:58;;;;;;;;;51.25;42.00;;;;;22.06;49.03;99906.81;5023099;28;8861;-74
2022/10/11 11:08:45;;;;;;;;;53.50;44.50;;;;;22.30;48.57;99889.00;5026723;28;8871;-73
2022/10/11 11:11:32;;;;;;;;;50.50;41.50;;;;;22.44;48.10;99897.25;5026669;28;8849;-74
2022/10/11 11:14:09;;;;;;;;;47.75;40.75;;;;;22.49;48.15;99889.06;5026123;28;8865;-75
2022/10/11 11:16:47;;;;;;;;;52.00;40.75;;;;;22.61;48.16;99896.50;5086605;28;8896;-73
2022/10/11 11:19:32;;;;;;;;;57.50;47.25;;;;;22.22;49.65;99899.94;5048943;28;8844;-73
2022/10/11 11:22:09;;;;;;;;;54.75;45.00;;;;;21.73;51.63;99902.00;5097926;28;8861;-74
2022/10/11 11:24:52;;;;;;;;;56.50;46.50;;;;;21.27;52.54;99902.00;5108390;28;8857;-73
2022/10/11 11:27:37;;;;;;;;;58.75;47.50;;;;;21.39;52.44;99898.84;5109451;28;8861;-73
2022/10/11 11:30:11;;;;;;;;;59.00;48.25;;;;;21.38;52.96;99901.59;5108677;28;8868;-73
2022/10/11 11:32:52;;;;;;;;;62.25;50.00;;;;;21.38;53.40;99905.09;5086799;28;8864;-75
2022/10/11 11:35:27;;;;;;;;;60.50;48.50;;;;;21.76;52.20;99893.91;5108851;28;8880;-75
2022/10/11 11:38:04;;;;;;;;;57.25;45.50;;;;;21.99;51.88;99898.25;5105904;28;8860;-74
2022/10/11 11:40:39;;;;;;;;;64.00;52.25;;;;;21.84;52.47;99896.25;5095445;28;8849;-72
2022/10/11 11:43:19;;;;;;;;;66.25;52.75;;;;;22.11;51.73;99886.25;5106822;28;9022;-72
2022/10/11 11:45:52;;;;;;;;;66.50;51.75;;;;;22.08;51.84;99889.91;5098765;28;8841;-75
2022/10/11 11:48:23;;;;;;;;;65.67;52.00;;;;;22.11;52.02;99881.78;5108541;28;9714;-74
2022/10/11 11:51:00;;;;;;;;;63.50;51.50;;;;;22.27;51.58;99886.47;5109256;28;9007;-75
2022/10/11 11:53:50;;;;;;;;;63.75;51.50;;;;;22.40;51.45;99874.41;5073162;28;10086;-75
2022/10/11 11:56:27;;;;;;;;;64.67;52.33;;;;;22.38;51.61;99878.91;5089705;28;8833;-73
2022/10/11 11:59:03;;;;;;;;;66.67;53.00;;;;;22.14;53.00;99876.34;5107017;28;8944;-74
2022/10/11 12:01:40;;;;;;;;;69.00;55.00;;;;;22.45;51.51;99875.03;5109231;28;9103;-76
2022/10/11 12:04:19;;;;;;;;;66.50;53.75;;;;;22.64;50.93;99877.75;5108978;28;8837;-75
2022/10/11 12:07:00;;;;;;;;;70.67;54.00;;;;;22.82;50.43;99877.88;5100389;28;8908;-75
2022/10/11 12:09:49;;;;;;;;;69.67;54.33;;;;;22.87;50.33;99879.38;5116242;28;9016;-76
2022/10/11 12:12:29;;;;;;;;;74.67;59.67;;;;;22.97;50.26;99875.34;5119214;28;9020;-76
2022/10/11 12:15:21;;;;;;;;;73.33;61.33;;;;;22.42;51.75;99877.84;5118953;28;9174;-75
2022/10/11 12:18:06;;;;;;;;;71.33;57.67;;;;;22.71;50.99;99886.31;5109870;28;9352;-75
2022/10/11 12:20:38;;;;;;;;;72.33;58.67;;;;;22.61;51.22;99887.66;5107945;28;9092;-74
2022/10/11 12:23:42;;;;;;;;;54.75;41.50;;;;;22.09;52.91;99891.63;5105708;28;9386;-74
2022/10/11 12:26:32;;;;;;;;;77.50;61.25;;;;;22.18;52.79;99885.06;5107460;28;9673;-74
2022/10/11 12:29:05;;;;;;;;;74.00;58.67;;;;;22.35;52.18;99889.69;5108403;28;9571;-76
2022/10/11 12:31:35;;;;;;;;;73.50;56.75;;;;;22.55;51.87;99891.44;5071506;28;9423;-76